Time;durP1;ratioP1;P1;durP2;ratioP2;P2;SDS_P1;SDS_P2;PMS_P1;PMS_P2;Temp;Humidity;BMP_temperature;BMP_pressure;BME280_temperature;BME280_humidity;BME280_pressure;Samples;Min_cycle;Max_cycle;Signal;HPM_P1;HPM_P2
2024/04/17 00:01:05;;;;;;;6.50;5.90;;;;;;;;;;5389596;26;20004;-81
2024/04/17 00:03:32;;;;;;;7.30;6.47;;;;;;;;;;5387071;26;20004;-81
2024/04/17 00:05:59;;;;;;;8.85;6.50;;;;;;;;;;5389253;26;20232;-81
2024/04/17 00:08:27;;;;;;;5.85;5.35;;;;;;;;;;5387353;26;20011;-81
2024/04/17 00:10:54;;;;;;;6.35;5.85;;;;;;;;;;5389322;26;20000;-81
2024/04/17 00:13:21;;;;;;;7.68;5.65;;;;;;;;;;5390900;26;20024;-81
2024/04/17 00:15:49;;;;;;;8.25;5.90;;;;;;;;;;5394250;26;20071;-82
2024/04/17 00:18:16;;;;;;;7.97;6.70;;;;;;;;;;5391732;26;20012;-80
2024/04/17 00:20:44;;;;;;;11.30;8.25;;;;;;;;;;5391748;26;20019;-80
2024/04/17 00:23:11;;;;;;;9.73;7.10;;;;;;;;;;5391256;26;20008;-81
2024/04/17 00:25:39;;;;;;;9.48;7.45;;;;;;;;;;5393215;26;20036;-80
2024/04/17 00:28:06;;;;;;;5.82;5.05;;;;;;;;;;5394375;26;20004;-80
2024/04/17 00:30:33;;;;;;;6.03;5.35;;;;;;;;;;5388622;26;20058;-80
2024/04/17 00:33:01;;;;;;;5.30;4.53;;;;;;;;;;5390263;26;19996;-81
2024/04/17 00:35:28;;;;;;;4.72;4.32;;;;;;;;;;5392020;26;20028;-81
2024/04/17 00:37:56;;;;;;;4.53;4.10;;;;;;;;;;5390745;26;20008;-81
2024/04/17 00:40:24;;;;;;;3.78;3.47;;;;;;;;;;5390447;26;20458;-82
2024/04/17 00:42:52;;;;;;;3.67;3.40;;;;;;;;;;5391090;26;20019;-81
2024/04/17 00:45:20;;;;;;;4.80;3.42;;;;;;;;;;5390797;26;20008;-82
2024/04/17 00:47:47;;;;;;;2.67;2.47;;;;;;;;;;5393727;26;20000;-82
2024/04/17 00:50:15;;;;;;;3.70;3.40;;;;;;;;;;5392404;26;20072;-82
2024/04/17 00:52:42;;;;;;;6.03;3.78;;;;;;;;;;5391457;26;20523;-82
2024/04/17 00:55:09;;;;;;;3.53;3.22;;;;;;;;;;5390026;26;20450;-81
2024/04/17 00:57:38;;;;;;;4.35;3.70;;;;;;;;;;5391192;26;20055;-82
2024/04/17 01:00:06;;;;;;;3.95;3.40;;;;;;;;;;5390944;26;20413;-80
2024/04/17 01:02:33;;;;;;;3.65;3.38;;;;;;;;;;5392890;26;20000;-80
2024/04/17 01:05:00;;;;;;;3.15;2.95;;;;;;;;;;5384471;26;20046;-80
2024/04/17 01:07:28;;;;;;;4.65;3.35;;;;;;;;;;5389952;26;20004;-80
2024/04/17 01:09:55;;;;;;;4.38;3.38;;;;;;;;;;5389401;26;20008;-78
2024/04/17 01:12:23;;;;;;;4.88;3.20;;;;;;;;;;5388189;26;20467;-81
2024/04/17 01:14:50;;;;;;;3.45;3.15;;;;;;;;;;5388188;26;20463;-81
2024/04/17 01:17:17;;;;;;;3.22;3.00;;;;;;;;;;5388048;26;20012;-80
2024/04/17 01:19:45;;;;;;;3.67;3.38;;;;;;;;;;5386921;26;20051;-81
2024/04/17 01:22:12;;;;;;;3.30;3.00;;;;;;;;;;5390688;26;20008;-81
2024/04/17 01:24:40;;;;;;;3.50;3.20;;;;;;;;;;5391136;26;20146;-80
2024/04/17 01:27:07;;;;;;;3.63;3.33;;;;;;;;;;5388719;26;20339;-81
2024/04/17 01:29:34;;;;;;;3.78;2.90;;;;;;;;;;5388480;26;20062;-79
2024/04/17 01:32:02;;;;;;;3.58;3.28;;;;;;;;;;5389928;26;20393;-81
2024/04/17 01:34:30;;;;;;;4.07;3.67;;;;;;;;;;5390368;26;20004;-80
2024/04/17 01:36:57;;;;;;;3.65;3.35;;;;;;;;;;5388798;26;20032;-81
2024/04/17 01:39:25;;;;;;;3.88;3.58;;;;;;;;;;5389927;26;20016;-80
2024/04/17 01:41:52;;;;;;;4.18;3.80;;;;;;;;;;5391931;26;20000;-81
2024/04/17 01:44:20;;;;;;;4.97;4.32;;;;;;;;;;5391668;26;20367;-79
2024/04/17 01:46:56;;;;;;;3.88;3.58;;;;;;;;;;5393440;26;20004;-80
2024/04/17 01:49:24;;;;;;;4.10;3.80;;;;;;;;;;5394658;26;20004;-80
2024/04/17 01:51:51;;;;;;;3.92;3.63;;;;;;;;;;5389205;26;20054;-80
2024/04/17 01:54:18;;;;;;;3.80;3.50;;;;;;;;;;5387561;26;20019;-81
2024/04/17 01:56:46;;;;;;;6.13;4.18;;;;;;;;;;5386892;26;20607;-81
2024/04/17 01:59:13;;;;;;;4.97;4.47;;;;;;;;;;5387357;26;20402;-81
2024/04/17 02:01:40;;;;;;;6.18;4.30;;;;;;;;;;5382931;26;19997;-80
2024/04/17 02:04:08;;;;;;;6.47;4.78;;;;;;;;;;5385126;26;20008;-79
2024/04/17 02:06:35;;;;;;;4.22;3.83;;;;;;;;;;5384947;26;20000;-81
2024/04/17 02:09:02;;;;;;;4.45;4.05;;;;;;;;;;5386710;26;20016;-80
2024/04/17 02:11:30;;;;;;;5.47;4.97;;;;;;;;;;5382152;26;20004;-80
2024/04/17 02:13:58;;;;;;;5.40;4.90;;;;;;;;;;5385589;26;20004;-80
2024/04/17 02:16:25;;;;;;;4.88;4.25;;;;;;;;;;5384864;26;20502;-80
2024/04/17 02:18:52;;;;;;;5.18;4.72;;;;;;;;;;5387121;26;20058;-81
2024/04/17 02:21:20;;;;;;;5.85;5.00;;;;;;;;;;5389407;26;20056;-81
2024/04/17 02:23:47;;;;;;;6.10;5.50;;;;;;;;;;5389592;26;20008;-81
2024/04/17 02:26:15;;;;;;;19.58;14.00;;;;;;;;;;5390302;26;20063;-82
2024/04/17 02:28:42;;;;;;;16.70;11.68;;;;;;;;;;5389656;26;20469;-81
2024/04/17 02:31:10;;;;;;;15.68;10.55;;;;;;;;;;5387715;26;20014;-80
2024/04/17 02:33:37;;;;;;;12.50;9.05;;;;;;;;;;5389964;26;20020;-81
2024/04/17 02:36:05;;;;;;;12.05;7.65;;;;;;;;;;5389120;26;20015;-80
2024/04/17 02:38:32;;;;;;;9.77;7.82;;;;;;;;;;5380231;26;20012;-80
2024/04/17 02:40:59;;;;;;;10.05;8.10;;;;;;;;;;5380595;26;19997;-80
2024/04/17 02:43:27;;;;;;;10.40;8.43;;;;;;;;;;5388120;26;20012;-80
2024/04/17 02:45:54;;;;;;;11.93;8.27;;;;;;;;;;5387976;26;20001;-80
2024/04/17 02:48:22;;;;;;;10.60;7.30;;;;;;;;;;5388396;26;20479;-79
2024/04/17 02:50:49;;;;;;;8.55;7.72;;;;;;;;;;5384576;26;20005;-80
2024/04/17 02:53:16;;;;;;;11.52;8.60;;;;;;;;;;5391932;26;20008;-81
2024/04/17 02:55:44;;;;;;;11.23;8.40;;;;;;;;;;5390246;26;20055;-80
2024/04/17 02:58:11;;;;;;;11.65;8.30;;;;;;;;;;5388993;26;20004;-81
2024/04/17 03:00:39;;;;;;;10.30;8.95;;;;;;;;;;5388934;26;19996;-81
2024/04/17 03:03:06;;;;;;;14.10;9.52;;;;;;;;;;5384507;26;20023;-80
2024/04/17 03:05:34;;;;;;;13.50;11.18;;;;;;;;;;5381346;26;20069;-80
2024/04/17 03:08:02;;;;;;;14.88;9.95;;;;;;;;;;5382806;26;20051;-81
2024/04/17 03:10:29;;;;;;;13.15;9.77;;;;;;;;;;5381389;26;20029;-80
2024/04/17 03:12:57;;;;;;;13.23;9.68;;;;;;;;;;5381786;26;20089;-80
2024/04/17 03:15:24;;;;;;;13.55;10.18;;;;;;;;;;5380863;26;20012;-80
2024/04/17 03:17:51;;;;;;;12.75;10.35;;;;;;;;;;5382824;26;20062;-81
2024/04/17 03:20:19;;;;;;;11.60;9.60;;;;;;;;;;5380468;26;20004;-81
2024/04/17 03:22:46;;;;;;;15.65;11.30;;;;;;;;;;5384513;26;20012;-81
2024/04/17 03:25:13;;;;;;;21.45;12.23;;;;;;;;;;5387139;26;20004;-82
2024/04/17 03:27:41;;;;;;;19.42;12.48;;;;;;;;;;5385484;26;20047;-81
2024/04/17 03:30:08;;;;;;;13.23;10.95;;;;;;;;;;5385900;26;20012;-80
2024/04/17 03:32:36;;;;;;;15.57;12.35;;;;;;;;;;5388526;26;20008;-81
2024/04/17 03:35:03;;;;;;;14.85;11.38;;;;;;;;;;5390248;26;20000;-81
2024/04/17 03:37:30;;;;;;;14.45;11.23;;;;;;;;;;5389108;26;20008;-80
2024/04/17 03:39:58;;;;;;;15.02;11.15;;;;;;;;;;5385430;26;20001;-80
2024/04/17 03:42:25;;;;;;;15.73;11.32;;;;;;;;;;5385554;26;20004;-80
2024/04/17 03:44:52;;;;;;;14.52;11.02;;;;;;;;;;5386657;26;20077;-81
2024/04/17 03:47:19;;;;;;;15.45;11.43;;;;;;;;;;5389961;26;20000;-81
2024/04/17 03:49:47;;;;;;;12.55;10.60;;;;;;;;;;5388242;26;20102;-81
2024/04/17 03:52:14;;;;;;;15.48;11.38;;;;;;;;;;5390546;26;20028;-82
2024/04/17 03:54:41;;;;;;;14.73;11.00;;;;;;;;;;5395459;26;20004;-81
2024/04/17 03:57:09;;;;;;;15.88;11.18;;;;;;;;;;5393195;26;20008;-82
2024/04/17 03:59:36;;;;;;;13.02;10.23;;;;;;;;;;5395307;26;20000;-81
2024/04/17 04:02:06;;;;;;;14.20;10.55;;;;;;;;;;5392040;26;20050;-81
2024/04/17 04:04:38;;;;;;;17.48;11.18;;;;;;;;;;5391559;26;20010;-81
2024/04/17 04:07:06;;;;;;;15.18;11.68;;;;;;;;;;5390573;26;20004;-81
2024/04/17 04:09:33;;;;;;;15.60;11.40;;;;;;;;;;5391471;26;20000;-79
2024/04/17 04:12:01;;;;;;;12.77;10.65;;;;;;;;;;5384531;26;20049;-80
2024/04/17 04:14:28;;;;;;;15.20;10.50;;;;;;;;;;5374167;26;20012;-81
2024/04/17 04:16:56;;;;;;;11.23;9.80;;;;;;;;;;5388110;26;20016;-80
2024/04/17 04:19:23;;;;;;;16.30;10.73;;;;;;;;;;5386286;26;20004;-80
2024/04/17 04:21:50;;;;;;;13.25;10.50;;;;;;;;;;5384296;26;20019;-80
2024/04/17 04:24:18;;;;;;;14.20;10.23;;;;;;;;;;5391502;26;20023;-80
2024/04/17 04:26:45;;;;;;;14.50;10.77;;;;;;;;;;5391318;26;20012;-80
2024/04/17 04:29:12;;;;;;;16.30;11.13;;;;;;;;;;5391274;26;19997;-80
2024/04/17 04:31:40;;;;;;;15.70;10.15;;;;;;;;;;5384473;26;20008;-80
2024/04/17 04:34:08;;;;;;;14.02;11.25;;;;;;;;;;5389210;26;20004;-80
2024/04/17 04:36:36;;;;;;;13.85;10.55;;;;;;;;;;5392656;26;20368;-81
2024/04/17 04:39:04;;;;;;;15.15;10.50;;;;;;;;;;5386481;26;20012;-81
2024/04/17 04:41:31;;;;;;;14.20;10.80;;;;;;;;;;5390453;26;20019;-80
2024/04/17 04:43:58;;;;;;;18.73;11.35;;;;;;;;;;5390763;26;20001;-81
2024/04/17 04:46:26;;;;;;;17.85;10.90;;;;;;;;;;5390217;26;20073;-80
2024/04/17 04:48:53;;;;;;;10.20;9.05;;;;;;;;;;5389033;26;20366;-81
2024/04/17 04:51:20;;;;;;;12.32;9.95;;;;;;;;;;5390330;26;20078;-80
2024/04/17 04:53:48;;;;;;;16.15;10.63;;;;;;;;;;5392468;26;20050;-81
2024/04/17 04:56:15;;;;;;;13.50;10.70;;;;;;;;;;5389502;26;20027;-81
2024/04/17 04:58:43;;;;;;;17.75;11.65;;;;;;;;;;5391877;26;20046;-80
2024/04/17 05:01:10;;;;;;;14.20;11.10;;;;;;;;;;5388914;26;20008;-81
2024/04/17 05:03:38;;;;;;;16.52;11.50;;;;;;;;;;5389086;26;20036;-81
2024/04/17 05:06:05;;;;;;;17.95;12.50;;;;;;;;;;5389647;26;20008;-81
2024/04/17 05:08:33;;;;;;;16.45;11.85;;;;;;;;;;5389374;26;20081;-81
2024/04/17 05:11:00;;;;;;;12.35;9.65;;;;;;;;;;5389603;26;20016;-81
2024/04/17 05:13:28;;;;;;;15.10;10.20;;;;;;;;;;5391628;26;20004;-81
2024/04/17 05:15:55;;;;;;;12.30;9.45;;;;;;;;;;5388001;26;20008;-79
2024/04/17 05:18:23;;;;;;;15.13;9.65;;;;;;;;;;5390123;26;20005;-80
2024/04/17 05:20:50;;;;;;;16.30;10.68;;;;;;;;;;5390080;26;20005;-81
2024/04/17 05:23:18;;;;;;;20.48;11.73;;;;;;;;;;5389755;26;20012;-80
2024/04/17 05:25:45;;;;;;;17.45;10.90;;;;;;;;;;5392493;26;20046;-81
2024/04/17 05:28:12;;;;;;;15.82;11.45;;;;;;;;;;5391927;26;20516;-81
2024/04/17 05:30:40;;;;;;;14.13;9.55;;;;;;;;;;5391766;26;20052;-81
2024/04/17 05:33:08;;;;;;;10.48;9.15;;;;;;;;;;5394019;26;19996;-81
2024/04/17 05:35:35;;;;;;;10.07;8.27;;;;;;;;;;5393005;26;20020;-81
2024/04/17 05:38:03;;;;;;;9.27;8.07;;;;;;;;;;5391648;26;20081;-81
2024/04/17 05:40:34;;;;;;;9.82;7.10;;;;;;;;;;5391925;26;20016;-81
2024/04/17 05:43:02;;;;;;;9.00;6.80;;;;;;;;;;5383527;26;20036;-80
2024/04/17 05:45:29;;;;;;;8.82;7.20;;;;;;;;;;5381662;26;20008;-80
2024/04/17 05:47:56;;;;;;;9.48;6.70;;;;;;;;;;5381968;26;20012;-80
2024/04/17 05:50:24;;;;;;;9.75;5.97;;;;;;;;;;5381849;26;20077;-81
2024/04/17 05:52:51;;;;;;;9.02;5.60;;;;;;;;;;5379806;26;19996;-80
2024/04/17 05:55:19;;;;;;;8.73;5.55;;;;;;;;;;5381599;26;20016;-80
2024/04/17 05:57:46;;;;;;;7.32;5.53;;;;;;;;;;5381689;26;20012;-80
2024/04/17 06:00:13;;;;;;;14.95;6.45;;;;;;;;;;5388435;26;20082;-81
2024/04/17 06:02:41;;;;;;;5.65;5.07;;;;;;;;;;5387978;26;20016;-80
2024/04/17 06:05:08;;;;;;;6.03;5.30;;;;;;;;;;5391359;26;20016;-83
2024/04/17 06:07:38;;;;;;;6.45;5.50;;;;;;;;;;5392593;26;20004;-81
2024/04/17 06:10:06;;;;;;;6.80;6.20;;;;;;;;;;5391201;26;20008;-82
2024/04/17 06:12:33;;;;;;;6.25;5.65;;;;;;;;;;5393317;26;20011;-82
2024/04/17 06:15:00;;;;;;;6.40;5.80;;;;;;;;;;5390502;26;20019;-81
2024/04/17 06:17:28;;;;;;;8.20;5.28;;;;;;;;;;5392914;26;20028;-81
2024/04/17 06:19:55;;;;;;;5.97;5.45;;;;;;;;;;5393713;26;20389;-80
2024/04/17 06:22:22;;;;;;;11.18;5.22;;;;;;;;;;5394185;26;20004;-82
2024/04/17 06:24:50;;;;;;;7.55;5.40;;;;;;;;;;5397042;26;20011;-82
2024/04/17 06:27:17;;;;;;;5.53;5.03;;;;;;;;;;5390845;26;20375;-82
2024/04/17 06:29:45;;;;;;;4.57;4.18;;;;;;;;;;5391880;26;20052;-80
2024/04/17 06:32:12;;;;;;;4.60;4.20;;;;;;;;;;5390819;26;20054;-82
2024/04/17 06:34:40;;;;;;;3.67;3.38;;;;;;;;;;5391423;26;20004;-82
2024/04/17 06:37:08;;;;;;;5.13;3.92;;;;;;;;;;5390627;26;20012;-82
2024/04/17 06:39:36;;;;;;;4.30;3.90;;;;;;;;;;5389823;26;20004;-82
2024/04/17 06:42:03;;;;;;;3.63;3.30;;;;;;;;;;5390399;26;20001;-82
2024/04/17 06:44:31;;;;;;;4.95;3.38;;;;;;;;;;5390501;26;20012;-81
2024/04/17 06:47:00;;;;;;;3.83;2.70;;;;;;;;;;5390696;26;20000;-83
2024/04/17 06:49:28;;;;;;;4.68;3.67;;;;;;;;;;5391481;26;20406;-83
2024/04/17 06:51:55;;;;;;;8.75;2.70;;;;;;;;;;5389487;26;20004;-81
2024/04/17 06:54:22;;;;;;;3.55;3.00;;;;;;;;;;5389573;26;20005;-82
2024/04/17 06:56:50;;;;;;;3.55;2.58;;;;;;;;;;5389067;26;20005;-81
2024/04/17 06:59:17;;;;;;;2.90;2.67;;;;;;;;;;5388902;26;20008;-82
2024/04/17 07:01:45;;;;;;;3.03;2.75;;;;;;;;;;5385715;26;20004;-82
2024/04/17 07:04:13;;;;;;;4.40;3.30;;;;;;;;;;5383750;26;20550;-80
2024/04/17 07:06:40;;;;;;;3.53;2.97;;;;;;;;;;5393938;26;20004;-82
2024/04/17 07:09:08;;;;;;;3.03;2.78;;;;;;;;;;5390176;26;20056;-82
2024/04/17 07:11:35;;;;;;;4.35;2.70;;;;;;;;;;5389894;26;20019;-79
2024/04/17 07:14:02;;;;;;;2.70;2.50;;;;;;;;;;5387012;26;20461;-79
2024/04/17 07:16:30;;;;;;;4.32;2.78;;;;;;;;;;5386693;26;20007;-81
2024/04/17 07:18:59;;;;;;;3.15;2.55;;;;;;;;;;5384296;26;20016;-80
2024/04/17 07:21:26;;;;;;;3.00;2.60;;;;;;;;;;5382193;26;20000;-81
2024/04/17 07:23:54;;;;;;;4.03;2.40;;;;;;;;;;5384367;26;20016;-80
2024/04/17 07:26:21;;;;;;;3.25;2.70;;;;;;;;;;5382629;26;20447;-80
2024/04/17 07:28:48;;;;;;;3.30;2.30;;;;;;;;;;5383943;26;20022;-78
2024/04/17 07:31:16;;;;;;;3.20;2.60;;;;;;;;;;5384339;26;20026;-81
2024/04/17 07:33:47;;;;;;;5.65;2.42;;;;;;;;;;5382496;26;20044;-80
2024/04/17 07:36:14;;;;;;;2.55;2.30;;;;;;;;;;5384237;26;20473;-80
2024/04/17 07:38:42;;;;;;;2.10;2.00;;;;;;;;;;5385136;26;20499;-81
2024/04/17 07:41:10;;;;;;;4.00;2.13;;;;;;;;;;5386524;26;20370;-81
2024/04/17 07:43:37;;;;;;;2.53;1.83;;;;;;;;;;5385646;26;20005;-80
2024/04/17 07:46:05;;;;;;;2.53;2.15;;;;;;;;;;5386436;26;20004;-82
2024/04/17 07:48:32;;;;;;;6.05;2.40;;;;;;;;;;5388487;26;20031;-83
2024/04/17 07:51:01;;;;;;;3.88;2.47;;;;;;;;;;5388069;26;20011;-78
2024/04/17 07:53:29;;;;;;;3.83;2.33;;;;;;;;;;5389748;26;20012;-82
2024/04/17 07:56:00;;;;;;;3.42;2.20;;;;;;;;;;5387290;26;20435;-82
2024/04/17 07:58:28;;;;;;;2.95;1.95;;;;;;;;;;5386697;26;20023;-82
2024/04/17 08:00:55;;;;;;;6.75;2.22;;;;;;;;;;5389502;26;20000;-78
2024/04/17 08:03:22;;;;;;;3.95;1.60;;;;;;;;;;5384687;26;20012;-80
2024/04/17 08:05:51;;;;;;;2.05;1.50;;;;;;;;;;5386455;26;20070;-80
2024/04/17 08:08:19;;;;;;;2.63;1.42;;;;;;;;;;5383983;26;20521;-80
2024/04/17 08:10:46;;;;;;;3.17;1.58;;;;;;;;;;5378294;26;20017;-80
2024/04/17 08:13:16;;;;;;;2.15;1.60;;;;;;;;;;5381616;26;20027;-80
2024/04/17 08:15:43;;;;;;;3.95;1.90;;;;;;;;;;5382519;26;20008;-80
2024/04/17 08:18:11;;;;;;;3.33;1.52;;;;;;;;;;5382943;26;20420;-81
2024/04/17 08:20:39;;;;;;;3.17;1.63;;;;;;;;;;5384429;26;20071;-81
2024/04/17 08:23:07;;;;;;;3.20;1.58;;;;;;;;;;5384190;26;20557;-81
2024/04/17 08:25:35;;;;;;;3.72;1.33;;;;;;;;;;5382116;26;20077;-79
2024/04/17 08:28:02;;;;;;;5.70;1.80;;;;;;;;;;5384909;26;20044;-80
2024/04/17 08:30:30;;;;;;;1.63;1.40;;;;;;;;;;5384310;26;20011;-80
2024/04/17 08:32:57;;;;;;;2.28;1.65;;;;;;;;;;5385399;26;20510;-82
2024/04/17 08:35:25;;;;;;;2.65;1.50;;;;;;;;;;5384662;26;20032;-81
2024/04/17 08:37:52;;;;;;;2.33;1.58;;;;;;;;;;5384958;26;20008;-80
2024/04/17 08:40:20;;;;;;;5.57;1.80;;;;;;;;;;5383740;26;20001;-80
2024/04/17 08:42:51;;;;;;;3.88;1.48;;;;;;;;;;5384929;26;20081;-80
2024/04/17 08:45:25;;;;;;;3.08;1.40;;;;;;;;;;5382641;26;20040;-79
2024/04/17 08:48:12;;;;;;;3.67;1.73;;;;;;;;;;5382656;26;20347;-79
2024/04/17 08:50:42;;;;;;;4.60;2.00;;;;;;;;;;5382088;26;19996;-78
2024/04/17 08:53:10;;;;;;;2.03;1.50;;;;;;;;;;5380872;26;20019;-79
2024/04/17 08:55:38;;;;;;;3.60;1.70;;;;;;;;;;5380564;26;20019;-78
2024/04/17 08:58:05;;;;;;;2.78;1.80;;;;;;;;;;5382562;26;20032;-80
2024/04/17 09:00:33;;;;;;;3.45;1.67;;;;;;;;;;5382480;26;20008;-78
2024/04/17 09:03:01;;;;;;;2.55;1.65;;;;;;;;;;5380371;26;20012;-79
2024/04/17 09:05:29;;;;;;;6.32;1.70;;;;;;;;;;5382639;26;20008;-78
2024/04/17 09:07:58;;;;;;;2.95;2.40;;;;;;;;;;5382498;26;20343;-78
2024/04/17 09:10:26;;;;;;;3.92;2.00;;;;;;;;;;5382379;26;20012;-79
2024/04/17 09:12:54;;;;;;;2.50;1.58;;;;;;;;;;5380707;26;20008;-81
2024/04/17 09:15:22;;;;;;;2.20;2.08;;;;;;;;;;5381005;26;20074;-80
2024/04/17 09:17:50;;;;;;;2.00;1.55;;;;;;;;;;5381085;26;20015;-80
2024/04/17 09:20:17;;;;;;;2.08;1.95;;;;;;;;;;5381403;26;20383;-81
2024/04/17 09:22:45;;;;;;;17.13;15.38;;;;;;;;;;5381061;26;20133;-81
2024/04/17 09:25:17;;;;;;;6.18;5.03;;;;;;;;;;5382295;26;20005;-81
2024/04/17 09:27:47;;;;;;;2.40;2.30;;;;;;;;;;5380784;26;20016;-81
2024/04/17 09:30:14;;;;;;;3.33;2.28;;;;;;;;;;5380764;26;20016;-81
2024/04/17 09:32:46;;;;;;;2.08;1.50;;;;;;;;;;5380688;26;20004;-81
2024/04/17 09:35:14;;;;;;;6.53;5.63;;;;;;;;;;5380794;26;20001;-81
2024/04/17 09:37:42;;;;;;;2.97;2.70;;;;;;;;;;5381082;26;20019;-80
2024/04/17 09:40:10;;;;;;;2.38;2.17;;;;;;;;;;5382301;26;19996;-80
2024/04/17 09:42:41;;;;;;;2.20;1.92;;;;;;;;;;5382278;26;20438;-80
2024/04/17 09:45:18;;;;;;;2.50;2.10;;;;;;;;;;5382130;26;20475;-80
2024/04/17 09:47:46;;;;;;;3.75;2.20;;;;;;;;;;5374344;26;20074;-79
2024/04/17 09:50:17;;;;;;;1.73;1.50;;;;;;;;;;5380479;26;20019;-80
2024/04/17 09:52:49;;;;;;;1.65;1.27;;;;;;;;;;5382566;26;20014;-81
2024/04/17 09:55:17;;;;;;;1.17;1.17;;;;;;;;;;5383027;26;20061;-81
2024/04/17 09:57:46;;;;;;;1.27;1.20;;;;;;;;;;5375153;26;20447;-81
2024/04/17 10:00:13;;;;;;;1.30;1.30;;;;;;;;;;5381603;26;20081;-80
2024/04/17 10:02:42;;;;;;;2.92;1.27;;;;;;;;;;5376070;26;20001;-81
2024/04/17 10:05:10;;;;;;;1.70;1.52;;;;;;;;;;5382352;26;20398;-82
2024/04/17 10:07:39;;;;;;;1.90;1.33;;;;;;;;;;5383855;26;20347;-82
2024/04/17 10:10:06;;;;;;;9.27;2.83;;;;;;;;;;5383923;26;20036;-82
2024/04/17 10:12:35;;;;;;;2.67;1.85;;;;;;;;;;5384289;26;20005;-82
2024/04/17 10:15:02;;;;;;;3.03;1.52;;;;;;;;;;5377254;26;20356;-81
2024/04/17 10:17:29;;;;;;;2.30;1.70;;;;;;;;;;5382993;26;20463;-81
2024/04/17 10:20:03;;;;;;;2.65;1.90;;;;;;;;;;5382410;26;20082;-81
2024/04/17 10:22:32;;;;;;;3.50;2.10;;;;;;;;;;5382471;26;20350;-82
2024/04/17 10:25:08;;;;;;;2.47;2.28;;;;;;;;;;5381175;26;20008;-80
2024/04/17 10:27:48;;;;;;;10.43;2.65;;;;;;;;;;5380968;26;20005;-80
2024/04/17 10:30:16;;;;;;;41.08;7.75;;;;;;;;;;5378417;26;20089;-80
2024/04/17 10:32:43;;;;;;;6.85;3.47;;;;;;;;;;5382220;26;19996;-81
2024/04/17 10:35:14;;;;;;;25.10;9.13;;;;;;;;;;5382960;26;20016;-81
2024/04/17 10:37:45;;;;;;;27.48;14.32;;;;;;;;;;5374853;26;20117;-81
2024/04/17 10:40:13;;;;;;;2.28;2.08;;;;;;;;;;5382124;26;20023;-81
2024/04/17 10:42:41;;;;;;;2.00;1.90;;;;;;;;;;5385811;26;20074;-81
2024/04/17 10:45:09;;;;;;;2.70;1.60;;;;;;;;;;5380824;26;20357;-81
2024/04/17 10:47:37;;;;;;;3.55;1.50;;;;;;;;;;5377767;26;20005;-81
2024/04/17 10:50:04;;;;;;;1.50;1.40;;;;;;;;;;5384082;26;20462;-79
2024/04/17 10:52:32;;;;;;;1.55;1.45;;;;;;;;;;5385733;26;20011;-78
2024/04/17 10:55:03;;;;;;;3.63;1.42;;;;;;;;;;5385566;26;20442;-78
2024/04/17 10:57:31;;;;;;;4.88;1.30;;;;;;;;;;5378191;26;20013;-78
2024/04/17 10:59:59;;;;;;;3.78;1.30;;;;;;;;;;5380267;26;20019;-78
2024/04/17 11:02:28;;;;;;;1.70;1.13;;;;;;;;;;5385092;26;20011;-78
2024/04/17 11:04:55;;;;;;;2.78;1.17;;;;;;;;;;5377594;26;20833;-77
2024/04/17 11:07:23;;;;;;;2.13;1.23;;;;;;;;;;5385199;26;20000;-78
2024/04/17 11:09:50;;;;;;;1.75;1.38;;;;;;;;;;5377747;26;20078;-79
2024/04/17 11:12:19;;;;;;;1.30;1.20;;;;;;;;;;5384619;26;20087;-80
2024/04/17 11:14:47;;;;;;;3.13;1.58;;;;;;;;;;5377609;26;20532;-80
2024/04/17 11:17:14;;;;;;;2.47;2.28;;;;;;;;;;5384026;26;20520;-81
2024/04/17 11:19:42;;;;;;;2.78;2.10;;;;;;;;;;5384874;26;20020;-80
2024/04/17 11:22:10;;;;;;;7.05;6.20;;;;;;;;;;5384404;26;20323;-80
2024/04/17 11:24:38;;;;;;;5.30;4.05;;;;;;;;;;5384608;26;20008;-80
2024/04/17 11:27:09;;;;;;;2.63;2.42;;;;;;;;;;5379211;26;20082;-80
2024/04/17 11:29:40;;;;;;;7.55;6.63;;;;;;;;;;5385079;26;20427;-79
2024/04/17 11:32:15;;;;;;;1.52;1.50;;;;;;;;;;5380097;26;20016;-81
2024/04/17 11:34:43;;;;;;;2.28;1.63;;;;;;;;;;5377923;26;20456;-80
2024/04/17 11:37:10;;;;;;;1.88;1.50;;;;;;;;;;5382354;26;19996;-81
2024/04/17 11:39:38;;;;;;;1.40;1.30;;;;;;;;;;5385289;26;20050;-80
2024/04/17 11:42:11;;;;;;;1.80;1.70;;;;;;;;;;5380962;26;20001;-81
2024/04/17 11:44:39;;;;;;;1.38;1.27;;;;;;;;;;5385376;26;20054;-79
2024/04/17 11:47:10;;;;;;;2.00;1.20;;;;;;;;;;5385724;26;19997;-81
2024/04/17 11:49:38;;;;;;;1.90;1.13;;;;;;;;;;5376172;26;20044;-78
2024/04/17 11:52:07;;;;;;;1.45;1.35;;;;;;;;;;5380282;26;20478;-80
2024/04/17 11:54:34;;;;;;;0.80;0.80;;;;;;;;;;5384404;26;20085;-80
2024/04/17 11:57:02;;;;;;;3.65;1.00;;;;;;;;;;5384284;26;20440;-77
2024/04/17 11:59:29;;;;;;;2.25;0.80;;;;;;;;;;5375597;26;20017;-76
2024/04/17 12:01:56;;;;;;;1.20;0.80;;;;;;;;;;5381368;26;20591;-77
2024/04/17 12:04:27;;;;;;;1.25;1.10;;;;;;;;;;5375741;26;20347;-78
2024/04/17 12:06:55;;;;;;;1.85;1.08;;;;;;;;;;5381676;26;20019;-77
2024/04/17 12:09:22;;;;;;;1.55;0.90;;;;;;;;;;5383026;26;20525;-77
2024/04/17 12:11:50;;;;;;;1.48;1.10;;;;;;;;;;5375488;26;20009;-77
2024/04/17 12:14:17;;;;;;;1.10;0.90;;;;;;;;;;5381209;26;20012;-77
2024/04/17 12:16:44;;;;;;;1.08;1.00;;;;;;;;;;5382791;26;20081;-79
2024/04/17 12:19:12;;;;;;;2.40;0.82;;;;;;;;;;5384707;26;20101;-78
2024/04/17 12:21:39;;;;;;;1.10;0.82;;;;;;;;;;5376462;26;20083;-78
2024/04/17 12:24:16;;;;;;;1.00;1.00;;;;;;;;;;5381715;26;20073;-78
2024/04/17 12:26:50;;;;;;;0.85;0.85;;;;;;;;;;5376361;26;20411;-78
2024/04/17 12:29:18;;;;;;;0.80;0.80;;;;;;;;;;5382095;26;20093;-79
2024/04/17 12:31:45;;;;;;;0.70;0.70;;;;;;;;;;5384531;26;20019;-78
2024/04/17 12:34:14;;;;;;;0.60;0.60;;;;;;;;;;5384196;26;20004;-78
2024/04/17 12:36:42;;;;;;;0.55;0.55;;;;;;;;;;5383642;26;20008;-78
2024/04/17 12:39:10;;;;;;;1.70;0.80;;;;;;;;;;5383354;26;20011;-79
2024/04/17 12:41:38;;;;;;;0.82;0.55;;;;;;;;;;5375098;26;20009;-78
2024/04/17 12:44:05;;;;;;;2.58;0.90;;;;;;;;;;5379739;26;20014;-78
2024/04/17 12:46:33;;;;;;;0.95;0.75;;;;;;;;;;5376246;26;20015;-78
2024/04/17 12:49:00;;;;;;;1.83;0.80;;;;;;;;;;5382349;26;20342;-78
2024/04/17 12:51:28;;;;;;;1.55;1.00;;;;;;;;;;5375386;26;20005;-80
2024/04/17 12:53:55;;;;;;;1.45;1.10;;;;;;;;;;5378102;26;20008;-80
2024/04/17 12:56:22;;;;;;;1.17;1.17;;;;;;;;;;5384146;26;20081;-80
2024/04/17 12:58:50;;;;;;;1.98;1.52;;;;;;;;;;5384014;26;20332;-82
2024/04/17 13:01:17;;;;;;;2.15;1.52;;;;;;;;;;5383305;26;20009;-80
2024/04/17 13:03:44;;;;;;;2.13;1.35;;;;;;;;;;5384177;26;20078;-80
2024/04/17 13:06:13;;;;;;;1.75;1.65;;;;;;;;;;5383344;26;20355;-80
2024/04/17 13:08:41;;;;;;;3.08;1.70;;;;;;;;;;5376392;26;20001;-80
2024/04/17 13:11:08;;;;;;;2.90;1.90;;;;;;;;;;5381923;26;20522;-80
2024/04/17 13:13:41;;;;;;;1.77;1.58;;;;;;;;;;5383879;26;20078;-80
2024/04/17 13:16:08;;;;;;;1.70;1.58;;;;;;;;;;5383840;26;20050;-80
2024/04/17 13:18:37;;;;;;;2.03;1.92;;;;;;;;;;5383909;26;20050;-80
2024/04/17 13:21:05;;;;;;;2.00;1.90;;;;;;;;;;5377546;26;20016;-80
2024/04/17 13:23:33;;;;;;;2.22;1.75;;;;;;;;;;5383485;26;20015;-80
2024/04/17 13:26:02;;;;;;;2.15;1.95;;;;;;;;;;5377329;26;20005;-80
2024/04/17 13:28:30;;;;;;;2.05;1.95;;;;;;;;;;5384114;26;20004;-80
2024/04/17 13:31:06;;;;;;;5.75;2.15;;;;;;;;;;5383665;26;20008;-80
2024/04/17 13:33:35;;;;;;;3.30;1.90;;;;;;;;;;5382036;26;20000;-79
2024/04/17 13:36:06;;;;;;;2.38;1.70;;;;;;;;;;5375926;26;20005;-79
2024/04/17 13:38:34;;;;;;;3.67;1.98;;;;;;;;;;5382033;26;20015;-79
2024/04/17 13:41:02;;;;;;;4.60;2.00;;;;;;;;;;5383500;26;20004;-80
2024/04/17 13:43:30;;;;;;;2.78;1.60;;;;;;;;;;5375836;26;20093;-80
2024/04/17 13:45:58;;;;;;;0.85;0.85;;;;;;;;;;5381171;26;20450;-81
2024/04/17 13:48:26;;;;;;;2.05;1.02;;;;;;;;;;5383352;26;20015;-80
2024/04/17 13:51:00;;;;;;;2.83;1.45;;;;;;;;;;5383431;26;20016;-81
2024/04/17 13:53:27;;;;;;;3.47;1.27;;;;;;;;;;5375653;26;20703;-80
2024/04/17 13:55:54;;;;;;;6.38;3.15;;;;;;;;;;5377161;26;20463;-80
2024/04/17 13:58:22;;;;;;;2.30;1.10;;;;;;;;;;5383217;26;20044;-80
2024/04/17 14:00:50;;;;;;;1.20;1.02;;;;;;;;;;5375452;26;20016;-80
2024/04/17 14:03:18;;;;;;;2.17;1.10;;;;;;;;;;5382407;26;20000;-80
2024/04/17 14:05:45;;;;;;;3.10;1.60;;;;;;;;;;5375924;26;20024;-80
2024/04/17 14:08:12;;;;;;;1.95;1.45;;;;;;;;;;5381886;26;20025;-80
2024/04/17 14:10:40;;;;;;;4.88;1.95;;;;;;;;;;5376971;26;20005;-80
2024/04/17 14:13:07;;;;;;;1.65;1.55;;;;;;;;;;5378092;26;20000;-80
2024/04/17 14:15:38;;;;;;;2.00;1.17;;;;;;;;;;5375088;26;20016;-80
2024/04/17 14:18:07;;;;;;;1.38;1.27;;;;;;;;;;5379761;26;20042;-80
2024/04/17 14:20:38;;;;;;;3.85;1.50;;;;;;;;;;5382320;26;20466;-80
2024/04/17 14:23:05;;;;;;;2.97;1.05;;;;;;;;;;5381870;26;20081;-82
2024/04/17 14:25:35;;;;;;;2.10;1.40;;;;;;;;;;5381400;26;20019;-78
2024/04/17 14:28:03;;;;;;;1.27;1.20;;;;;;;;;;5375024;26;20343;-80
2024/04/17 14:30:32;;;;;;;2.35;1.30;;;;;;;;;;5373425;26;20485;-81
2024/04/17 14:33:00;;;;;;;3.53;1.10;;;;;;;;;;5376865;26;20015;-79
2024/04/17 14:35:27;;;;;;;1.67;1.20;;;;;;;;;;5373534;26;20005;-80
2024/04/17 14:37:55;;;;;;;3.45;1.35;;;;;;;;;;5379857;26;20001;-79
2024/04/17 14:40:22;;;;;;;3.72;1.70;;;;;;;;;;5380846;26;20420;-80
2024/04/17 14:42:49;;;;;;;1.85;1.70;;;;;;;;;;5381045;26;20012;-80